createdAt,value
2023-02-23T00:01:55.637Z,9.35
2023-02-23T00:04:23.989Z,9.30
2023-02-23T00:06:54.733Z,9.15
2023-02-23T00:09:24.951Z,8.63
2023-02-23T00:11:56.224Z,7.97
2023-02-23T00:14:31.415Z,8.00
2023-02-23T00:17:00.266Z,8.00
2023-02-23T00:19:27.567Z,7.65
2023-02-23T00:21:55.132Z,7.97
2023-02-23T00:24:23.432Z,7.93
2023-02-23T00:26:51.818Z,8.05
2023-02-23T00:29:21.098Z,7.78
2023-02-23T00:31:49.667Z,7.70
2023-02-23T00:34:21.412Z,7.57
2023-02-23T00:36:54.596Z,7.88
2023-02-23T00:39:22.746Z,7.60
2023-02-23T00:41:50.476Z,6.95
2023-02-23T00:44:17.622Z,8.15
2023-02-23T00:46:45.617Z,7.03
2023-02-23T00:49:13.661Z,7.35
2023-02-23T00:51:41.777Z,7.00
2023-02-23T00:54:12.471Z,6.65
2023-02-23T00:56:39.982Z,5.68
2023-02-23T00:59:07.576Z,5.80
2023-02-23T01:01:34.708Z,5.85
2023-02-23T01:04:01.845Z,5.50
2023-02-23T01:06:31.046Z,5.45
2023-02-23T01:08:58.296Z,5.43
2023-02-23T01:11:31.459Z,5.87
2023-02-23T01:13:59.411Z,5.47
2023-02-23T01:16:28.267Z,5.13
2023-02-23T01:18:56.302Z,5.47
2023-02-23T01:21:24.896Z,5.07
2023-02-23T01:23:53.536Z,5.40
2023-02-23T01:26:20.958Z,5.93
2023-02-23T01:28:51.872Z,7.40
2023-02-23T01:31:20.147Z,8.15
2023-02-23T01:33:47.746Z,7.60
2023-02-23T01:36:15.166Z,10.47
2023-02-23T01:38:42.396Z,11.45
2023-02-23T01:41:09.654Z,11.70
2023-02-23T01:43:37.388Z,15.55
2023-02-23T01:46:06.363Z,17.45
2023-02-23T01:48:36.562Z,17.30
2023-02-23T01:51:03.914Z,17.10
2023-02-23T01:53:34.429Z,17.60
2023-02-23T01:56:03.165Z,15.10
2023-02-23T01:58:30.752Z,14.55
2023-02-23T02:00:58.691Z,12.87
2023-02-23T02:03:36.662Z,12.52
2023-02-23T02:06:04.792Z,12.35
2023-02-23T02:08:33.637Z,11.85
2023-02-23T02:11:00.927Z,11.18
2023-02-23T02:13:31.336Z,10.73
2023-02-23T02:16:13.667Z,8.80
2023-02-23T02:18:48.271Z,8.00
2023-02-23T02:21:18.636Z,7.13
2023-02-23T02:24:04.498Z,7.05
2023-02-23T02:26:43.305Z,6.23
2023-02-23T02:29:10.468Z,6.60
2023-02-23T02:31:37.862Z,7.05
2023-02-23T02:34:12.174Z,7.05
2023-02-23T02:36:42.837Z,7.50
2023-02-23T02:39:39.280Z,6.80
2023-02-23T02:42:18.488Z,6.63
2023-02-23T02:44:54.958Z,6.47
2023-02-23T02:47:42.344Z,7.22
2023-02-23T02:50:18.107Z,6.60
2023-02-23T02:52:50.956Z,6.53
2023-02-23T02:55:24.086Z,6.78
2023-02-23T02:57:53.523Z,7.40
2023-02-23T03:00:40.772Z,7.50
2023-02-23T03:03:45.601Z,8.23
2023-02-23T03:06:31.213Z,7.67
2023-02-23T03:09:40.032Z,6.72
2023-02-23T03:12:28.667Z,7.47
2023-02-23T03:15:26.751Z,6.80
2023-02-23T03:18:30.716Z,7.32
2023-02-23T03:21:24.328Z,8.63
2023-02-23T03:24:33.879Z,9.23
2023-02-23T03:27:35.086Z,12.18
2023-02-23T03:30:25.107Z,13.45
2023-02-23T03:33:25.581Z,14.75
2023-02-23T03:36:31.532Z,16.17
2023-02-23T03:39:17.214Z,17.15
2023-02-23T03:42:04.168Z,18.00
2023-02-23T03:44:52.084Z,18.02
2023-02-23T03:47:40.334Z,17.23
2023-02-23T03:50:31.174Z,16.83
2023-02-23T03:53:18.971Z,16.35
2023-02-23T03:56:07.162Z,18.80
2023-02-23T03:58:56.275Z,18.38
2023-02-23T04:01:43.191Z,18.60
2023-02-23T04:04:29.725Z,16.63
2023-02-23T04:07:17.336Z,16.10
2023-02-23T04:10:02.986Z,15.38
2023-02-23T04:12:56.065Z,13.73
2023-02-23T04:15:26.025Z,12.30
2023-02-23T04:17:53.970Z,10.40
2023-02-23T04:20:21.229Z,10.48
2023-02-23T04:22:48.396Z,10.45
2023-02-23T04:25:17.472Z,11.45
2023-02-23T04:27:44.879Z,13.18
2023-02-23T04:30:12.279Z,13.27
2023-02-23T04:32:39.424Z,12.23
2023-02-23T04:35:07.040Z,11.80
2023-02-23T04:37:34.491Z,10.93
2023-02-23T04:40:01.620Z,9.52
2023-02-23T04:42:29.098Z,9.30
2023-02-23T04:44:56.345Z,9.20
2023-02-23T04:47:23.843Z,9.38
2023-02-23T04:49:51.332Z,8.23
2023-02-23T04:52:18.642Z,7.82
2023-02-23T04:54:46.517Z,7.50
2023-02-23T04:57:13.925Z,7.55
2023-02-23T04:59:42.874Z,7.60
2023-02-23T05:02:10.316Z,9.63
2023-02-23T05:04:39.317Z,8.73
2023-02-23T05:07:06.682Z,8.33
2023-02-23T05:09:34.187Z,9.25
2023-02-23T05:12:01.921Z,8.05
2023-02-23T05:14:29.844Z,9.25
2023-02-23T05:16:57.053Z,8.60
2023-02-23T05:19:24.720Z,10.00
2023-02-23T05:21:51.798Z,10.50
2023-02-23T05:24:19.563Z,9.25
2023-02-23T05:26:46.685Z,8.95
2023-02-23T05:29:13.896Z,9.10
2023-02-23T05:31:41.076Z,7.73
2023-02-23T05:34:08.350Z,8.02
2023-02-23T05:36:37.101Z,8.07
2023-02-23T05:39:04.589Z,7.63
2023-02-23T05:41:31.677Z,6.47
2023-02-23T05:43:58.859Z,6.07
2023-02-23T05:46:27.120Z,5.15
2023-02-23T05:48:59.357Z,5.88
2023-02-23T05:51:27.284Z,6.22
2023-02-23T05:53:54.596Z,6.10
2023-02-23T05:56:22.227Z,6.80
2023-02-23T05:58:51.005Z,7.65
2023-02-23T06:01:18.772Z,8.30
2023-02-23T06:03:47.742Z,8.13
2023-02-23T06:06:15.425Z,12.30
2023-02-23T06:08:42.877Z,14.77
2023-02-23T06:11:10.408Z,15.40
2023-02-23T06:13:38.708Z,15.90
2023-02-23T06:16:06.337Z,15.60
2023-02-23T06:18:33.803Z,16.90
2023-02-23T06:21:01.917Z,17.63
2023-02-23T06:23:29.897Z,17.17
2023-02-23T06:25:57.300Z,19.58
2023-02-23T06:28:25.878Z,21.30
2023-02-23T06:30:54.192Z,21.08
2023-02-23T06:33:21.959Z,21.00
2023-02-23T06:35:49.307Z,22.45
2023-02-23T06:38:16.609Z,18.30
2023-02-23T06:40:46.239Z,17.17
2023-02-23T06:43:13.500Z,16.40
2023-02-23T06:45:41.228Z,14.80
2023-02-23T06:48:08.867Z,15.73
2023-02-23T06:50:36.123Z,16.70
2023-02-23T06:53:03.364Z,13.32
2023-02-23T06:55:30.612Z,10.93
2023-02-23T06:57:57.867Z,10.47
2023-02-23T07:00:24.947Z,9.90
2023-02-23T07:02:52.145Z,10.23
2023-02-23T07:05:19.301Z,8.25
2023-02-23T07:07:46.964Z,7.43
2023-02-23T07:10:15.183Z,6.50
2023-02-23T07:12:42.375Z,7.53
2023-02-23T07:15:10.526Z,9.40
2023-02-23T07:17:37.665Z,15.07
2023-02-23T07:20:05.164Z,18.08
2023-02-23T07:22:34.380Z,18.67
2023-02-23T07:25:01.651Z,22.63
2023-02-23T07:27:28.838Z,22.17
2023-02-23T07:29:56.196Z,20.50
2023-02-23T07:32:23.592Z,18.50
2023-02-23T07:34:52.804Z,19.33
2023-02-23T07:37:21.814Z,20.02
2023-02-23T07:39:49.143Z,19.85
2023-02-23T07:42:16.216Z,17.52
2023-02-23T07:44:43.445Z,18.63
2023-02-23T07:47:11.403Z,17.77
2023-02-23T07:49:38.905Z,18.27
2023-02-23T07:52:06.111Z,17.35
2023-02-23T07:54:33.966Z,16.25
2023-02-23T07:57:01.043Z,14.27
2023-02-23T07:59:28.422Z,15.43
2023-02-23T08:01:55.669Z,14.30
2023-02-23T08:04:22.867Z,14.45
2023-02-23T08:06:49.972Z,14.27
2023-02-23T08:09:17.228Z,15.60
2023-02-23T08:11:44.603Z,13.23
2023-02-23T08:14:13.173Z,13.98
2023-02-23T08:16:40.555Z,14.63
2023-02-23T08:19:07.941Z,15.45
2023-02-23T08:21:36.050Z,15.18
2023-02-23T08:24:03.638Z,15.37
2023-02-23T08:26:30.937Z,13.57
2023-02-23T08:28:58.617Z,14.57
2023-02-23T08:31:27.992Z,13.68
2023-02-23T08:33:55.164Z,14.10
2023-02-23T08:36:22.777Z,13.87
2023-02-23T08:38:49.981Z,13.23
2023-02-23T08:41:17.828Z,13.48
2023-02-23T08:43:45.300Z,13.57
2023-02-23T08:46:12.955Z,16.58
2023-02-23T08:48:40.865Z,12.77
2023-02-23T08:51:08.476Z,13.07
2023-02-23T08:53:36.177Z,13.13
2023-02-23T08:56:04.915Z,13.25
2023-02-23T08:58:32.190Z,13.07
2023-02-23T09:01:00.512Z,13.33
2023-02-23T09:03:30.543Z,13.07
2023-02-23T09:05:58.639Z,12.95
2023-02-23T09:08:25.858Z,12.32
2023-02-23T09:10:54.126Z,12.05
2023-02-23T09:13:21.325Z,17.30
2023-02-23T09:15:48.518Z,19.27
2023-02-23T09:18:15.760Z,19.15
2023-02-23T09:20:43.475Z,20.58
2023-02-23T09:23:11.536Z,19.27
2023-02-23T09:25:46.386Z,20.27
2023-02-23T09:28:18.819Z,21.80
2023-02-23T09:30:46.776Z,21.45
2023-02-23T09:33:14.382Z,22.77
2023-02-23T09:35:55.000Z,22.00
2023-02-23T09:38:23.612Z,21.43
2023-02-23T09:40:57.460Z,19.50
2023-02-23T09:43:36.690Z,22.20
2023-02-23T09:46:30.186Z,21.92
2023-02-23T09:49:12.026Z,21.65
2023-02-23T09:51:59.962Z,21.63
2023-02-23T09:54:38.540Z,19.55
2023-02-23T09:57:12.653Z,21.92
2023-02-23T09:59:40.038Z,20.10
2023-02-23T10:02:07.308Z,20.20
2023-02-23T10:04:37.787Z,19.00
2023-02-23T10:07:21.124Z,19.17
2023-02-23T10:10:06.479Z,17.88
2023-02-23T10:12:46.634Z,18.02
2023-02-23T10:15:33.873Z,17.58
2023-02-23T10:18:08.166Z,17.60
2023-02-23T10:20:42.584Z,16.40
2023-02-23T10:23:29.660Z,17.42
2023-02-23T10:26:01.104Z,17.52
2023-02-23T10:28:33.332Z,18.00
2023-02-23T10:31:02.805Z,15.90
2023-02-23T10:33:41.822Z,16.65
2023-02-23T10:36:13.867Z,15.60
2023-02-23T10:38:41.401Z,16.25
2023-02-23T10:41:09.466Z,15.80
2023-02-23T10:43:36.628Z,15.83
2023-02-23T10:46:04.784Z,15.50
2023-02-23T10:48:34.313Z,14.88
2023-02-23T10:51:03.332Z,15.32
2023-02-23T10:53:37.818Z,16.42
2023-02-23T10:56:11.107Z,15.70
2023-02-23T10:58:44.276Z,16.15
2023-02-23T11:01:13.403Z,14.23
2023-02-23T11:03:43.230Z,14.40
2023-02-23T11:06:33.783Z,14.50
2023-02-23T11:09:24.813Z,14.53
2023-02-23T11:11:59.279Z,14.88
2023-02-23T11:14:28.923Z,15.07
2023-02-23T11:16:58.172Z,14.13
2023-02-23T11:19:34.101Z,14.77
2023-02-23T11:22:01.690Z,14.00
2023-02-23T11:24:32.900Z,14.18
2023-02-23T11:27:07.162Z,14.40
2023-02-23T11:29:42.024Z,14.40
2023-02-23T11:32:19.551Z,13.90
2023-02-23T11:34:49.709Z,13.43
2023-02-23T11:37:24.092Z,14.60
2023-02-23T11:39:52.442Z,15.05
2023-02-23T11:42:21.053Z,14.73
2023-02-23T11:44:52.797Z,14.02
2023-02-23T11:47:22.963Z,14.57
2023-02-23T11:49:51.044Z,16.48
2023-02-23T11:52:19.902Z,16.63
2023-02-23T11:54:56.327Z,16.25
2023-02-23T11:57:24.602Z,15.93
2023-02-23T11:59:52.612Z,16.47
2023-02-23T12:02:27.434Z,15.63
2023-02-23T12:05:17.596Z,16.10
2023-02-23T12:08:03.539Z,14.25
2023-02-23T12:10:42.570Z,15.80
2023-02-23T12:13:19.851Z,15.30
2023-02-23T12:15:50.424Z,16.15
2023-02-23T12:18:24.307Z,15.65
2023-02-23T12:20:54.742Z,16.05
2023-02-23T12:23:28.920Z,16.60
2023-02-23T12:25:56.441Z,15.47
2023-02-23T12:28:27.684Z,16.45
2023-02-23T12:30:55.182Z,16.00
2023-02-23T12:33:35.729Z,15.48
2023-02-23T12:36:07.460Z,15.82
2023-02-23T12:38:44.530Z,15.13
2023-02-23T12:41:16.644Z,16.10
2023-02-23T12:43:51.838Z,15.80
2023-02-23T12:46:22.506Z,16.50
2023-02-23T12:49:02.770Z,15.73
2023-02-23T12:51:39.591Z,15.17
2023-02-23T12:54:09.533Z,14.68
2023-02-23T12:56:44.568Z,15.75
2023-02-23T12:59:32.075Z,15.20
2023-02-23T13:02:01.793Z,14.70
2023-02-23T13:04:47.833Z,14.77
2023-02-23T13:07:45.233Z,15.63
2023-02-23T13:10:30.870Z,14.73
2023-02-23T13:13:02.537Z,14.60
2023-02-23T13:15:43.112Z,15.45
2023-02-23T13:18:33.733Z,15.43
2023-02-23T13:21:04.230Z,13.73
2023-02-23T13:23:35.080Z,14.77
2023-02-23T13:26:02.250Z,15.35
2023-02-23T13:28:36.945Z,15.07
2023-02-23T13:31:05.966Z,14.87
2023-02-23T13:33:43.928Z,15.15
2023-02-23T13:36:13.355Z,14.60
2023-02-23T13:38:45.592Z,13.77
2023-02-23T13:41:24.780Z,14.15
2023-02-23T13:43:59.679Z,14.93
2023-02-23T13:46:29.733Z,13.63
2023-02-23T13:49:18.763Z,13.82
2023-02-23T13:51:55.303Z,13.38
2023-02-23T13:54:26.754Z,12.98
2023-02-23T13:56:58.901Z,13.40
2023-02-23T13:59:29.745Z,12.18
2023-02-23T14:01:57.306Z,12.15
2023-02-23T14:04:24.585Z,12.55
2023-02-23T14:06:54.217Z,12.73
2023-02-23T14:09:24.157Z,12.27
2023-02-23T14:11:53.973Z,12.23
2023-02-23T14:14:33.544Z,12.38
2023-02-23T14:17:16.095Z,12.40
2023-02-23T14:19:46.114Z,11.82
2023-02-23T14:22:14.784Z,11.27
2023-02-23T14:24:41.971Z,11.73
2023-02-23T14:27:34.102Z,11.90
2023-02-23T14:30:08.760Z,11.00
2023-02-23T14:32:40.234Z,11.68
2023-02-23T14:35:27.657Z,10.70
2023-02-23T14:37:56.924Z,11.00
2023-02-23T14:40:32.124Z,11.65
2023-02-23T14:43:01.251Z,12.18
2023-02-23T14:45:30.995Z,10.60
2023-02-23T14:48:01.926Z,11.87
2023-02-23T14:50:31.857Z,12.93
2023-02-23T14:53:00.820Z,11.93
2023-02-23T14:55:29.696Z,10.95
2023-02-23T14:57:58.423Z,12.00
2023-02-23T15:00:27.235Z,11.50
2023-02-23T15:03:00.426Z,12.07
2023-02-23T15:05:31.677Z,12.05
2023-02-23T15:08:07.075Z,11.98
2023-02-23T15:10:35.833Z,12.00
2023-02-23T15:13:20.053Z,11.73
2023-02-23T15:15:47.721Z,11.57
2023-02-23T15:18:22.012Z,12.35
2023-02-23T15:20:49.849Z,11.20
2023-02-23T15:23:19.396Z,11.30
2023-02-23T15:25:51.405Z,11.23
2023-02-23T15:28:23.998Z,11.32
2023-02-23T15:30:54.489Z,11.73
2023-02-23T15:33:29.081Z,11.32
2023-02-23T15:36:16.584Z,11.82
2023-02-23T15:38:45.250Z,21.60
2023-02-23T15:41:29.016Z,12.13
2023-02-23T15:44:02.092Z,11.88
2023-02-23T15:46:29.829Z,11.23
2023-02-23T15:49:01.594Z,12.10
2023-02-23T15:51:34.461Z,11.93
2023-02-23T15:54:03.416Z,12.15
2023-02-23T15:56:31.116Z,12.57
2023-02-23T15:59:02.502Z,14.13
2023-02-23T16:01:30.902Z,13.52
2023-02-23T16:03:58.312Z,13.23
2023-02-23T16:06:27.343Z,14.85
2023-02-23T16:08:58.862Z,14.15
2023-02-23T16:11:26.911Z,14.05
2023-02-23T16:13:54.478Z,12.73
2023-02-23T16:16:25.848Z,13.00
2023-02-23T16:18:54.378Z,13.32
2023-02-23T16:21:24.842Z,12.88
2023-02-23T16:23:53.746Z,12.88
2023-02-23T16:26:27.401Z,13.07
2023-02-23T16:28:56.805Z,13.13
2023-02-23T16:31:28.302Z,14.38
2023-02-23T16:34:00.417Z,14.10
2023-02-23T16:36:38.143Z,14.43
2023-02-23T16:39:09.893Z,15.23
2023-02-23T16:41:37.338Z,15.65
2023-02-23T16:44:05.666Z,15.07
2023-02-23T16:46:36.060Z,14.75
2023-02-23T16:49:10.570Z,15.35
2023-02-23T16:51:38.161Z,15.77
2023-02-23T16:54:05.467Z,15.85
2023-02-23T16:56:34.790Z,17.07
2023-02-23T16:59:03.863Z,15.65
2023-02-23T17:01:31.514Z,15.52
2023-02-23T17:03:59.532Z,14.00
2023-02-23T17:06:26.895Z,13.85
2023-02-23T17:08:58.128Z,14.57
2023-02-23T17:11:26.430Z,15.15
2023-02-23T17:13:53.632Z,15.40
2023-02-23T17:16:21.497Z,15.75
2023-02-23T17:18:49.311Z,14.85
2023-02-23T17:21:23.290Z,14.73
2023-02-23T17:23:51.433Z,13.27
2023-02-23T17:26:25.391Z,14.05
2023-02-23T17:28:54.091Z,13.57
2023-02-23T17:31:23.552Z,12.80
2023-02-23T17:33:52.969Z,14.73
2023-02-23T17:36:20.221Z,14.48
2023-02-23T17:38:47.446Z,15.75
2023-02-23T17:41:16.833Z,18.60
2023-02-23T17:43:44.257Z,21.23
2023-02-23T17:46:12.815Z,15.57
2023-02-23T17:48:44.928Z,15.07
2023-02-23T17:51:13.256Z,16.65
2023-02-23T17:53:40.848Z,15.88
2023-02-23T17:56:08.674Z,15.98
2023-02-23T17:58:36.213Z,16.23
2023-02-23T18:01:05.177Z,19.50
2023-02-23T18:03:33.828Z,19.00
2023-02-23T18:06:01.916Z,17.25
2023-02-23T18:08:30.479Z,16.65
2023-02-23T18:10:57.940Z,14.52
2023-02-23T18:13:25.580Z,17.73
2023-02-23T18:15:59.677Z,20.05
2023-02-23T18:18:26.989Z,17.38
2023-02-23T18:20:55.463Z,16.80
2023-02-23T18:23:23.587Z,17.42
2023-02-23T18:25:50.723Z,15.80
2023-02-23T18:28:18.401Z,14.52
2023-02-23T18:30:45.722Z,13.98
2023-02-23T18:33:13.733Z,14.10
2023-02-23T18:35:43.265Z,15.63
2023-02-23T18:38:12.073Z,16.63
2023-02-23T18:40:39.609Z,15.32
2023-02-23T18:43:07.194Z,16.42
2023-02-23T18:45:34.649Z,17.00
2023-02-23T18:48:01.836Z,23.65
2023-02-23T18:50:28.957Z,21.30
2023-02-23T18:52:58.364Z,19.40
2023-02-23T18:55:25.534Z,19.15
2023-02-23T18:57:56.024Z,18.55
2023-02-23T19:00:23.354Z,16.70
2023-02-23T19:02:53.460Z,17.48
2023-02-23T19:05:22.088Z,17.00
2023-02-23T19:07:49.594Z,15.75
2023-02-23T19:10:16.943Z,16.17
2023-02-23T19:12:44.305Z,16.73
2023-02-23T19:15:12.507Z,15.65
2023-02-23T19:17:42.283Z,15.57
2023-02-23T19:20:13.814Z,15.80
2023-02-23T19:22:41.769Z,18.17
2023-02-23T19:25:11.880Z,17.60
2023-02-23T19:27:39.307Z,15.95
2023-02-23T19:30:10.286Z,15.73
2023-02-23T19:32:39.865Z,15.10
2023-02-23T19:35:09.353Z,13.13
2023-02-23T19:37:37.007Z,12.30
2023-02-23T19:40:04.626Z,14.05
2023-02-23T19:42:33.083Z,13.97
2023-02-23T19:45:02.466Z,14.50
2023-02-23T19:47:29.695Z,14.60
2023-02-23T19:49:57.309Z,14.35
2023-02-23T19:52:24.994Z,16.15
2023-02-23T19:54:52.113Z,16.30
2023-02-23T19:57:20.972Z,15.15
2023-02-23T19:59:48.256Z,15.98
2023-02-23T20:02:16.136Z,15.25
2023-02-23T20:04:48.035Z,14.93
2023-02-23T20:07:15.490Z,15.57
2023-02-23T20:09:42.646Z,20.00
2023-02-23T20:12:09.940Z,24.80
2023-02-23T20:14:39.522Z,22.02
2023-02-23T20:17:06.769Z,19.42
2023-02-23T20:19:35.263Z,16.07
2023-02-23T20:22:02.978Z,16.60
2023-02-23T20:24:30.269Z,16.95
2023-02-23T20:26:59.477Z,15.25
2023-02-23T20:29:29.056Z,15.95
2023-02-23T20:31:56.496Z,15.60
2023-02-23T20:34:24.705Z,16.20
2023-02-23T20:36:52.205Z,16.10
2023-02-23T20:39:19.722Z,15.93
2023-02-23T20:41:48.206Z,15.98
2023-02-23T20:44:16.240Z,16.27
2023-02-23T20:46:44.977Z,15.77
2023-02-23T20:49:15.686Z,16.67
2023-02-23T20:51:44.136Z,18.20
2023-02-23T20:54:11.435Z,17.50
2023-02-23T20:56:41.933Z,16.80
2023-02-23T20:59:12.116Z,14.90
2023-02-23T21:01:40.497Z,14.60
2023-02-23T21:04:08.042Z,15.05
2023-02-23T21:06:35.306Z,15.95
2023-02-23T21:09:05.466Z,15.80
2023-02-23T21:11:33.076Z,14.70
2023-02-23T21:14:00.507Z,15.05
2023-02-23T21:16:32.555Z,14.18
2023-02-23T21:19:05.760Z,13.52
2023-02-23T21:21:38.621Z,14.03
2023-02-23T21:24:06.041Z,13.40
2023-02-23T21:26:33.161Z,14.15
2023-02-23T21:29:00.307Z,13.38
2023-02-23T21:31:27.775Z,13.45
2023-02-23T21:33:55.103Z,12.73
2023-02-23T21:36:22.313Z,13.65
2023-02-23T21:38:49.645Z,12.75
2023-02-23T21:41:16.860Z,13.05
2023-02-23T21:43:44.855Z,11.80
2023-02-23T21:46:16.129Z,12.67
2023-02-23T21:48:43.909Z,12.60
2023-02-23T21:51:12.398Z,13.80
2023-02-23T21:53:40.064Z,12.63
2023-02-23T21:56:12.011Z,11.48
2023-02-23T21:58:40.374Z,12.67
2023-02-23T22:01:14.478Z,11.32
2023-02-23T22:03:45.242Z,12.15
2023-02-23T22:06:16.087Z,12.55
2023-02-23T22:08:43.555Z,12.32
2023-02-23T22:11:12.205Z,12.70
2023-02-23T22:13:39.433Z,13.02
2023-02-23T22:16:07.405Z,12.80
2023-02-23T22:18:34.731Z,12.20
2023-02-23T22:21:04.217Z,12.40
2023-02-23T22:23:34.787Z,11.83
2023-02-23T22:26:02.453Z,11.32
2023-02-23T22:28:29.709Z,12.63
2023-02-23T22:30:57.134Z,11.45
2023-02-23T22:33:24.374Z,11.90
2023-02-23T22:35:53.107Z,10.77
2023-02-23T22:38:20.396Z,11.75
2023-02-23T22:40:48.209Z,11.65
2023-02-23T22:43:16.609Z,11.40
2023-02-23T22:45:44.353Z,11.85
2023-02-23T22:48:11.556Z,11.97
2023-02-23T22:50:38.823Z,11.23
2023-02-23T22:53:06.307Z,11.65
2023-02-23T22:55:35.391Z,11.23
2023-02-23T22:58:02.527Z,11.05
2023-02-23T23:00:29.928Z,10.77
2023-02-23T23:02:57.065Z,11.18
2023-02-23T23:05:25.933Z,12.07
2023-02-23T23:07:55.684Z,10.77
2023-02-23T23:10:23.963Z,10.73
2023-02-23T23:12:51.158Z,11.30
2023-02-23T23:15:20.222Z,11.20
2023-02-23T23:17:50.416Z,11.38
2023-02-23T23:20:18.906Z,10.95
2023-02-23T23:22:46.078Z,11.10
2023-02-23T23:25:16.266Z,11.23
2023-02-23T23:27:45.129Z,11.30
2023-02-23T23:30:12.714Z,12.07
2023-02-23T23:32:41.252Z,10.13
2023-02-23T23:35:11.506Z,10.73
2023-02-23T23:37:41.861Z,11.03
2023-02-23T23:40:16.642Z,11.18
2023-02-23T23:42:46.299Z,10.90
2023-02-23T23:45:16.449Z,10.82
2023-02-23T23:47:47.070Z,11.68
2023-02-23T23:50:21.786Z,11.02
2023-02-23T23:52:50.720Z,11.32
2023-02-23T23:55:19.614Z,10.75
2023-02-23T23:57:46.725Z,11.65
